Time,TemperatureF,DewpointF,PressureIn,WindDirection,WindDirectionDegrees,WindSpeedMPH,WindSpeedGustMPH,Humidity,HourlyPrecipIn,Conditions,Clouds,dailyrainin,SoftwareType,DateUTC
2013-02-15 00:04:00,48.3,4.0,-100.00,WSW,243,0.0,0.0,16,0.00,,,0.00,,2013-02-15 06:04:00,
2013-02-15 00:09:00,48.3,4.0,-100.00,WSW,243,0.0,0.0,16,0.00,,,0.00,,2013-02-15 06:09:00,
2013-02-15 00:14:00,48.4,4.0,-100.00,WSW,243,0.0,0.0,16,0.00,,,0.00,,2013-02-15 06:14:00,
2013-02-15 00:19:00,48.5,4.0,-100.00,WSW,243,0.0,0.0,16,0.00,,,0.00,,2013-02-15 06:19:00,
2013-02-15 00:24:00,48.6,3.0,-100.00,WSW,243,0.0,0.0,15,0.00,,,0.00,,2013-02-15 06:24:00,
2013-02-15 00:29:00,48.5,2.0,-100.00,WSW,243,0.0,0.0,15,0.00,,,0.00,,2013-02-15 06:29:00,
2013-02-15 00:34:00,48.4,2.0,-100.00,WSW,243,0.0,0.0,15,0.00,,,0.00,,2013-02-15 06:34:00,
2013-02-15 00:39:00,48.5,2.0,-100.00,WSW,243,0.0,0.0,15,0.00,,,0.00,,2013-02-15 06:39:00,
2013-02-15 00:44:00,48.4,2.0,-100.00,WSW,243,0.0,0.0,15,0.00,,,0.00,,2013-02-15 06:44:00,
2013-02-15 00:49:00,48.3,2.0,-100.00,WSW,243,0.0,0.0,15,0.00,,,0.00,,2013-02-15 06:49:00,
2013-02-15 00:54:00,48.1,2.0,-100.00,WSW,243,0.0,0.0,15,0.00,,,0.00,,2013-02-15 06:54:00,
2013-02-15 00:59:00,48.0,2.0,-100.00,WSW,243,0.0,0.0,15,0.00,,,0.00,,2013-02-15 06:59:00,
2013-02-15 01:04:00,48.0,2.0,-100.00,WSW,243,0.0,0.0,15,0.00,,,0.00,,2013-02-15 07:04:00,
2013-02-15 01:09:00,48.0,2.0,-100.00,WSW,243,0.0,0.0,15,0.00,,,0.00,,2013-02-15 07:09:00,
2013-02-15 01:14:00,46.8,1.0,-100.00,WSW,243,0.0,0.0,15,0.00,,,0.00,,2013-02-15 07:14:00,
2013-02-15 01:19:00,46.8,1.0,-100.00,WSW,243,0.0,0.0,15,0.00,,,0.00,,2013-02-15 07:19:00,
2013-02-15 01:24:00,46.7,1.0,-100.00,WSW,243,0.0,0.0,15,0.00,,,0.00,,2013-02-15 07:24:00,
2013-02-15 01:29:00,46.6,1.0,-100.00,WSW,243,0.0,0.0,15,0.00,,,0.00,,2013-02-15 07:29:00,
2013-02-15 01:34:00,46.5,1.0,-100.00,WSW,243,0.0,0.0,15,0.00,,,0.00,,2013-02-15 07:34:00,
2013-02-15 01:39:00,46.4,1.0,-100.00,WSW,243,0.0,0.0,15,0.00,,,0.00,,2013-02-15 07:39:00,
2013-02-15 01:44:00,46.1,2.0,-100.00,WSW,243,0.0,0.0,16,0.00,,,0.00,,2013-02-15 07:44:00,
2013-02-15 01:49:00,44.6,1.0,-100.00,WSW,243,0.0,0.0,16,0.00,,,0.00,,2013-02-15 07:49:00,
2013-02-15 01:54:00,44.1,2.0,-100.00,WSW,243,0.0,0.0,17,0.00,,,0.00,,2013-02-15 07:54:00,
2013-02-15 01:59:00,42.8,1.0,-100.00,WSW,243,0.0,0.0,17,0.00,,,0.00,,2013-02-15 07:59:00,
2013-02-15 02:04:00,42.4,0.0,-100.00,WSW,243,0.0,0.0,17,0.00,,,0.00,,2013-02-15 08:04:00,
2013-02-15 02:09:00,42.1,1.0,-100.00,WSW,243,0.0,0.0,18,0.00,,,0.00,,2013-02-15 08:09:00,
2013-02-15 02:14:00,42.0,1.0,-100.00,WSW,243,0.0,0.0,18,0.00,,,0.00,,2013-02-15 08:14:00,
2013-02-15 02:24:00,40.4,1.0,-100.00,WSW,243,0.0,0.0,19,0.00,,,0.00,,2013-02-15 08:24:00,
2013-02-15 02:29:00,40.2,1.0,-100.00,WSW,243,0.0,0.0,19,0.00,,,0.00,,2013-02-15 08:29:00,
2013-02-15 02:34:00,40.0,1.0,-100.00,WSW,243,0.0,0.0,19,0.00,,,0.00,,2013-02-15 08:34:00,
2013-02-15 02:39:00,39.9,2.0,-100.00,WSW,243,0.0,0.0,20,0.00,,,0.00,,2013-02-15 08:39:00,
2013-02-15 02:44:00,39.8,2.0,-100.00,WSW,243,0.0,0.0,20,0.00,,,0.00,,2013-02-15 08:44:00,
2013-02-15 02:49:00,39.6,1.0,-100.00,WSW,243,0.0,0.0,20,0.00,,,0.00,,2013-02-15 08:49:00,
2013-02-15 02:54:00,39.4,1.0,-100.00,WSW,243,0.0,0.0,20,0.00,,,0.00,,2013-02-15 08:54:00,
2013-02-15 02:59:00,39.3,2.0,-100.00,WSW,243,0.0,0.0,21,0.00,,,0.00,,2013-02-15 08:59:00,
2013-02-15 03:04:00,39.3,2.0,-100.00,WSW,243,0.0,0.0,21,0.00,,,0.00,,2013-02-15 09:04:00,
2013-02-15 03:09:00,39.2,2.0,-100.00,WSW,243,0.0,0.0,21,0.00,,,0.00,,2013-02-15 09:09:00,
2013-02-15 03:14:00,39.0,2.0,-100.00,WSW,243,0.0,0.0,21,0.00,,,0.00,,2013-02-15 09:14:00,
2013-02-15 03:19:00,37.8,1.0,-100.00,WSW,243,0.0,0.0,21,0.00,,,0.00,,2013-02-15 09:19:00,
2013-02-15 03:24:00,37.8,1.0,-100.00,WSW,243,0.0,0.0,21,0.00,,,0.00,,2013-02-15 09:24:00,
2013-02-15 03:29:00,37.8,1.0,-100.00,WSW,243,0.0,0.0,21,0.00,,,0.00,,2013-02-15 09:29:00,
2013-02-15 03:34:00,37.7,1.0,-100.00,WSW,243,0.0,0.0,21,0.00,,,0.00,,2013-02-15 09:34:00,
2013-02-15 03:39:00,37.7,2.0,-100.00,WSW,243,0.0,0.0,22,0.00,,,0.00,,2013-02-15 09:39:00,
2013-02-15 03:44:00,37.7,2.0,-100.00,WSW,243,0.0,0.0,22,0.00,,,0.00,,2013-02-15 09:44:00,
2013-02-15 03:49:00,37.6,2.0,-100.00,WSW,243,0.0,0.0,22,0.00,,,0.00,,2013-02-15 09:49:00,
2013-02-15 03:54:00,37.5,2.0,-100.00,WSW,243,0.0,0.0,22,0.00,,,0.00,,2013-02-15 09:54:00,
2013-02-15 03:59:00,37.5,2.0,-100.00,WSW,243,0.0,0.0,22,0.00,,,0.00,,2013-02-15 09:59:00,
2013-02-15 04:04:00,37.5,2.0,-100.00,WSW,243,0.0,0.0,22,0.00,,,0.00,,2013-02-15 10:04:00,
2013-02-15 04:09:00,37.5,3.0,-100.00,WSW,243,0.0,0.0,23,0.00,,,0.00,,2013-02-15 10:09:00,
2013-02-15 04:14:00,37.3,2.0,-100.00,WSW,243,0.0,0.0,23,0.00,,,0.00,,2013-02-15 10:14:00,
2013-02-15 04:19:00,37.1,2.0,-100.00,WSW,243,0.0,0.0,23,0.00,,,0.00,,2013-02-15 10:19:00,
2013-02-15 04:24:00,35.8,1.0,-100.00,WSW,243,0.0,0.0,23,0.00,,,0.00,,2013-02-15 10:24:00,
2013-02-15 04:29:00,35.7,1.0,-100.00,WSW,243,0.0,0.0,23,0.00,,,0.00,,2013-02-15 10:29:00,
2013-02-15 04:34:00,37.0,2.0,-100.00,WSW,243,0.0,0.0,23,0.00,,,0.00,,2013-02-15 10:34:00,
2013-02-15 04:39:00,37.5,4.0,-100.00,WSW,243,0.0,0.0,24,0.00,,,0.00,,2013-02-15 10:39:00,
2013-02-15 04:44:00,39.7,4.0,-100.00,WSW,243,0.0,0.0,23,0.00,,,0.00,,2013-02-15 10:44:00,
2013-02-15 04:49:00,40.2,4.0,-100.00,WSW,243,0.0,0.0,22,0.00,,,0.00,,2013-02-15 10:49:00,
2013-02-15 04:54:00,40.3,4.0,-100.00,WSW,243,0.0,0.0,22,0.00,,,0.00,,2013-02-15 10:54:00,
2013-02-15 04:59:00,40.1,4.0,-100.00,WSW,243,0.0,0.0,22,0.00,,,0.00,,2013-02-15 10:59:00,
2013-02-15 05:04:00,40.0,4.0,-100.00,WSW,243,0.0,0.0,22,0.00,,,0.00,,2013-02-15 11:04:00,
2013-02-15 05:09:00,40.1,4.0,-100.00,WSW,243,0.0,0.0,22,0.00,,,0.00,,2013-02-15 11:09:00,
2013-02-15 05:14:00,40.0,4.0,-100.00,WSW,243,0.0,0.0,22,0.00,,,0.00,,2013-02-15 11:14:00,
2013-02-15 05:19:00,39.6,3.0,-100.00,WSW,243,0.0,0.0,22,0.00,,,0.00,,2013-02-15 11:19:00,
2013-02-15 05:24:00,39.4,3.0,-100.00,WSW,243,0.0,0.0,22,0.00,,,0.00,,2013-02-15 11:24:00,
2013-02-15 05:29:00,39.5,3.0,-100.00,WSW,243,0.0,0.0,22,0.00,,,0.00,,2013-02-15 11:29:00,
2013-02-15 05:34:00,39.4,3.0,-100.00,WSW,243,0.0,0.0,22,0.00,,,0.00,,2013-02-15 11:34:00,
2013-02-15 05:39:00,39.1,4.0,-100.00,WSW,243,0.0,0.0,23,0.00,,,0.00,,2013-02-15 11:39:00,
2013-02-15 05:44:00,37.9,3.0,-100.00,WSW,243,0.0,0.0,23,0.00,,,0.00,,2013-02-15 11:44:00,
2013-02-15 05:49:00,37.7,30.0,-100.00,WSW,243,0.0,0.0,76,0.00,,,0.00,,2013-02-15 11:49:00,
2013-02-15 05:54:00,37.7,34.0,-100.00,WSW,243,0.0,0.0,88,0.00,,,0.00,,2013-02-15 11:54:00,
2013-02-15 05:59:00,37.8,33.0,-100.00,WSW,243,0.0,0.0,86,0.00,,,0.00,,2013-02-15 11:59:00,
2013-02-15 06:04:00,39.6,36.0,-100.00,WSW,243,0.0,0.0,90,0.00,,,0.00,,2013-02-15 12:04:00,
2013-02-15 06:09:00,40.1,36.0,-100.00,WSW,243,0.0,0.0,87,0.00,,,0.00,,2013-02-15 12:09:00,
2013-02-15 06:14:00,40.5,36.0,-100.00,WSW,243,0.0,0.0,85,0.00,,,0.00,,2013-02-15 12:14:00,
2013-02-15 06:19:00,40.6,36.0,-100.00,WSW,243,0.0,0.0,85,0.00,,,0.00,,2013-02-15 12:19:00,
2013-02-15 06:24:00,40.6,36.0,-100.00,WSW,243,0.0,0.0,86,0.00,,,0.00,,2013-02-15 12:24:00,
2013-02-15 06:29:00,40.9,36.0,-100.00,WSW,243,0.0,0.0,85,0.00,,,0.00,,2013-02-15 12:29:00,
2013-02-15 06:34:00,42.2,37.0,-100.00,WSW,243,0.0,0.0,83,0.00,,,0.00,,2013-02-15 12:34:00,
2013-02-15 06:39:00,42.4,36.0,-100.00,WSW,243,0.0,0.0,80,0.00,,,0.00,,2013-02-15 12:39:00,
2013-02-15 06:44:00,42.6,6.0,-100.00,WSW,243,0.0,0.0,22,0.00,,,0.00,,2013-02-15 12:44:00,
2013-02-15 06:49:00,42.5,6.0,-100.00,WSW,243,0.0,0.0,22,0.00,,,0.00,,2013-02-15 12:49:00,
2013-02-15 06:54:00,42.7,6.0,-100.00,WSW,243,0.0,0.0,22,0.00,,,0.00,,2013-02-15 12:54:00,
2013-02-15 06:59:00,42.8,6.0,-100.00,WSW,243,0.0,0.0,22,0.00,,,0.00,,2013-02-15 12:59:00,
2013-02-15 07:04:00,44.0,7.0,-100.00,WSW,243,0.0,0.0,22,0.00,,,0.00,,2013-02-15 13:04:00,
2013-02-15 07:09:00,44.0,6.0,-100.00,WSW,243,0.0,0.0,21,0.00,,,0.00,,2013-02-15 13:09:00,
2013-02-15 07:14:00,44.1,7.0,-100.00,SW,220,0.0,0.0,22,0.00,,,0.00,,2013-02-15 13:14:00,
2013-02-15 07:19:00,44.1,7.0,-100.00,South,175,0.0,0.0,22,0.00,,,0.00,,2013-02-15 13:19:00,
2013-02-15 07:24:00,44.1,7.0,-100.00,SW,220,0.0,0.0,22,0.00,,,0.00,,2013-02-15 13:24:00,
2013-02-15 07:29:00,44.1,7.0,-100.00,SW,220,0.0,0.0,22,0.00,,,0.00,,2013-02-15 13:29:00,
2013-02-15 07:34:00,44.2,6.0,-100.00,SW,220,0.0,0.0,21,0.00,,,0.00,,2013-02-15 13:34:00,
2013-02-15 07:39:00,44.3,6.0,-100.00,SW,220,0.0,0.0,21,0.00,,,0.00,,2013-02-15 13:39:00,
2013-02-15 07:44:00,44.5,7.0,-100.00,SW,220,0.0,0.0,21,0.00,,,0.00,,2013-02-15 13:44:00,
2013-02-15 07:49:00,44.7,6.0,-100.00,SW,220,0.0,0.0,20,0.00,,,0.00,,2013-02-15 13:49:00,
2013-02-15 07:54:00,44.9,6.0,-100.00,SSW,203,0.0,0.0,20,0.00,,,0.00,,2013-02-15 13:54:00,
2013-02-15 07:59:00,46.1,6.0,-100.00,SW,220,0.0,0.0,19,0.00,,,0.00,,2013-02-15 13:59:00,
2013-02-15 08:04:00,46.3,6.0,-100.00,WNW,288,0.0,0.0,19,0.00,,,0.00,,2013-02-15 14:04:00,
2013-02-15 08:09:00,46.6,5.0,-100.00,NW,305,0.0,0.0,18,0.00,,,0.00,,2013-02-15 14:09:00,
2013-02-15 08:14:00,48.3,6.0,-100.00,NNW,333,0.0,0.0,18,0.00,,,0.00,,2013-02-15 14:14:00,
2013-02-15 08:19:00,48.8,5.0,-100.00,NNE,18,0.0,0.0,17,0.00,,,0.00,,2013-02-15 14:19:00,
2013-02-15 08:24:00,49.2,6.0,-100.00,NW,310,0.0,0.0,17,0.00,,,0.00,,2013-02-15 14:24:00,
2013-02-15 08:29:00,49.5,6.0,-100.00,North,355,0.0,0.0,17,0.00,,,0.00,,2013-02-15 14:29:00,
2013-02-15 08:34:00,49.7,5.0,-100.00,NNW,347,0.0,0.0,16,0.00,,,0.00,,2013-02-15 14:34:00,
2013-02-15 08:39:00,49.9,5.0,-100.00,North,355,0.0,0.0,16,0.00,,,0.00,,2013-02-15 14:39:00,
2013-02-15 08:44:00,49.6,3.0,-100.00,WSW,246,0.0,0.0,15,0.00,,,0.00,,2013-02-15 14:44:00,
2013-02-15 08:49:00,49.5,3.0,-100.00,WSW,251,0.0,0.0,15,0.00,,,0.00,,2013-02-15 14:49:00,
2013-02-15 08:54:00,49.5,2.0,-100.00,SW,229,0.0,0.0,14,0.00,,,0.00,,2013-02-15 14:54:00,
2013-02-15 08:59:00,49.6,0.0,-100.00,WSW,245,0.0,0.0,13,0.00,,,0.00,,2013-02-15 14:59:00,
2013-02-15 09:04:00,51.0,1.0,-100.00,SW,220,0.0,0.0,13,0.00,,,0.00,,2013-02-15 15:04:00,
2013-02-15 09:09:00,51.1,2.0,-100.00,SW,217,0.0,0.0,13,0.00,,,0.00,,2013-02-15 15:09:00,
2013-02-15 09:14:00,51.4,0.0,-100.00,SSW,212,0.0,0.0,12,0.00,,,0.00,,2013-02-15 15:14:00,
2013-02-15 09:19:00,51.6,0.0,-100.00,SW,220,0.0,0.0,12,0.00,,,0.00,,2013-02-15 15:19:00,
2013-02-15 09:24:00,53.1,1.0,-100.00,SW,217,0.0,0.0,12,0.00,,,0.00,,2013-02-15 15:24:00,
2013-02-15 09:29:00,53.6,0.0,-100.00,SW,217,0.0,0.0,11,0.00,,,0.00,,2013-02-15 15:29:00,
2013-02-15 09:34:00,53.5,0.0,-100.00,SW,220,0.0,0.0,11,0.00,,,0.00,,2013-02-15 15:34:00,
2013-02-15 09:39:00,53.4,0.0,-100.00,SW,232,0.0,0.0,11,0.00,,,0.00,,2013-02-15 15:39:00,
2013-02-15 09:44:00,55.1,1.0,-100.00,SW,220,0.0,0.0,11,0.00,,,0.00,,2013-02-15 15:44:00,
2013-02-15 09:49:00,53.9,-1.0,-100.00,SW,217,0.0,0.0,10,0.00,,,0.00,,2013-02-15 15:49:00,
2013-02-15 09:54:00,53.3,-1.0,-100.00,West,280,0.0,0.0,10,0.00,,,0.00,,2013-02-15 15:54:00,
2013-02-15 09:59:00,53.3,-1.0,-100.00,SW,220,0.0,0.0,10,0.00,,,0.00,,2013-02-15 15:59:00,
2013-02-15 10:04:00,53.8,-3.0,-100.00,SSW,201,0.0,0.0,9,0.00,,,0.00,,2013-02-15 16:04:00,
2013-02-15 10:09:00,53.6,-3.0,-100.00,SSW,212,0.0,0.0,9,0.00,,,0.00,,2013-02-15 16:09:00,
2013-02-15 10:14:00,53.8,-3.0,-100.00,SSW,209,0.0,0.0,9,0.00,,,0.00,,2013-02-15 16:14:00,
2013-02-15 10:19:00,53.6,-3.0,-100.00,SW,214,0.0,0.0,9,0.00,,,0.00,,2013-02-15 16:19:00,
2013-02-15 10:24:00,55.0,-5.0,-100.00,SW,217,0.0,0.0,8,0.00,,,0.00,,2013-02-15 16:24:00,
2013-02-15 10:29:00,55.3,-4.0,-100.00,SW,220,0.0,0.0,8,0.00,,,0.00,,2013-02-15 16:29:00,
2013-02-15 10:34:00,55.1,-5.0,-100.00,SSW,209,0.0,0.0,8,0.00,,,0.00,,2013-02-15 16:34:00,
2013-02-15 10:39:00,55.1,-5.0,-100.00,SW,217,0.0,0.0,8,0.00,,,0.00,,2013-02-15 16:39:00,
2013-02-15 10:44:00,55.6,-4.0,-100.00,SW,214,0.0,0.0,8,0.00,,,0.00,,2013-02-15 16:44:00,
2013-02-15 10:49:00,57.0,-6.0,-100.00,West,265,0.0,0.0,7,0.00,,,0.00,,2013-02-15 16:49:00,
2013-02-15 10:54:00,57.0,-6.0,-100.00,West,265,0.0,0.0,7,0.00,,,0.00,,2013-02-15 16:54:00,
2013-02-15 10:59:00,55.8,-10.0,-100.00,WNW,302,0.0,0.0,6,0.00,,,0.00,,2013-02-15 16:59:00,
2013-02-15 11:04:00,55.8,-7.0,-100.00,SW,232,0.0,0.0,7,0.00,,,0.00,,2013-02-15 17:04:00,
2013-02-15 11:09:00,53.8,-8.0,-100.00,WSW,237,0.0,0.0,7,0.00,,,0.00,,2013-02-15 17:09:00,
2013-02-15 11:14:00,55.6,-7.0,-100.00,West,265,0.0,0.0,7,0.00,,,0.00,,2013-02-15 17:14:00,
2013-02-15 11:19:00,57.2,-9.0,-100.00,West,263,0.0,0.0,6,0.00,,,0.00,,2013-02-15 17:19:00,
2013-02-15 11:24:00,55.6,-10.0,-100.00,NW,310,0.0,0.0,6,0.00,,,0.00,,2013-02-15 17:24:00,
2013-02-15 11:29:00,57.3,-9.0,-100.00,WNW,302,0.0,0.0,6,0.00,,,0.00,,2013-02-15 17:29:00,
2013-02-15 11:34:00,55.5,-10.0,-100.00,West,274,0.0,0.0,6,0.00,,,0.00,,2013-02-15 17:34:00,
2013-02-15 11:39:00,55.1,-7.0,-100.00,North,355,0.0,0.0,7,0.00,,,0.00,,2013-02-15 17:39:00,
2013-02-15 11:44:00,55.3,-7.0,-100.00,North,355,0.0,0.0,7,0.00,,,0.00,,2013-02-15 17:44:00,
2013-02-15 11:49:00,55.3,-7.0,-100.00,WNW,288,0.0,0.0,7,0.00,,,0.00,,2013-02-15 17:49:00,
2013-02-15 11:54:00,55.1,-7.0,-100.00,WNW,288,0.0,0.0,7,0.00,,,0.00,,2013-02-15 17:54:00,
2013-02-15 11:59:00,55.0,-7.0,-100.00,NW,310,0.0,0.0,7,0.00,,,0.00,,2013-02-15 17:59:00,
2013-02-15 12:04:00,55.2,-7.0,-100.00,NW,316,0.0,0.0,7,0.00,,,0.00,,2013-02-15 18:04:00,
2013-02-15 12:09:00,55.5,-7.0,-100.00,NW,310,0.0,0.0,7,0.00,,,0.00,,2013-02-15 18:09:00,
2013-02-15 12:14:00,55.2,-10.0,-100.00,NW,305,0.0,0.0,6,0.00,,,0.00,,2013-02-15 18:14:00,
2013-02-15 12:19:00,55.5,-10.0,-100.00,WSW,254,0.0,0.0,6,0.00,,,0.00,,2013-02-15 18:19:00,
2013-02-15 12:24:00,55.3,-10.0,-100.00,WSW,248,0.0,0.0,6,0.00,,,0.00,,2013-02-15 18:24:00,
2013-02-15 12:29:00,57.3,-9.0,-100.00,WNW,288,0.0,0.0,6,0.00,,,0.00,,2013-02-15 18:29:00,
2013-02-15 12:34:00,57.2,-13.0,-100.00,SSE,147,0.0,0.0,5,0.00,,,0.00,,2013-02-15 18:34:00,
2013-02-15 12:39:00,57.0,-13.0,-100.00,NW,305,0.0,0.0,5,0.00,,,0.00,,2013-02-15 18:39:00,
2013-02-15 12:44:00,57.7,-12.0,-100.00,WNW,299,0.0,0.0,5,0.00,,,0.00,,2013-02-15 18:44:00,
2013-02-15 12:49:00,57.0,-13.0,-100.00,WSW,249,0.0,0.0,5,0.00,,,0.00,,2013-02-15 18:49:00,
2013-02-15 12:54:00,55.8,-14.0,-100.00,WNW,299,0.0,0.0,5,0.00,,,0.00,,2013-02-15 18:54:00,
2013-02-15 12:59:00,53.8,-15.0,-100.00,SSW,212,0.0,0.0,5,0.00,,,0.00,,2013-02-15 18:59:00,
2013-02-15 13:04:00,53.8,-15.0,-100.00,WSW,240,0.0,0.0,5,0.00,,,0.00,,2013-02-15 19:04:00,
2013-02-15 13:09:00,53.7,-12.0,-100.00,NW,310,0.0,0.0,6,0.00,,,0.00,,2013-02-15 19:09:00,
2013-02-15 13:14:00,53.7,-12.0,-100.00,West,268,0.0,0.0,6,0.00,,,0.00,,2013-02-15 19:14:00,
2013-02-15 13:19:00,53.9,-11.0,-100.00,North,355,0.0,0.0,6,0.00,,,0.00,,2013-02-15 19:19:00,
2013-02-15 13:24:00,55.1,-14.0,-100.00,NW,310,0.0,0.0,5,0.00,,,0.00,,2013-02-15 19:24:00,
2013-02-15 13:29:00,57.0,-13.0,-100.00,WNW,299,0.0,0.0,5,0.00,,,0.00,,2013-02-15 19:29:00,
2013-02-15 13:34:00,55.2,-14.0,-100.00,NW,313,0.0,0.0,5,0.00,,,0.00,,2013-02-15 19:34:00,
2013-02-15 13:39:00,55.6,-14.0,-100.00,NW,310,0.0,0.0,5,0.00,,,0.00,,2013-02-15 19:39:00,
2013-02-15 13:44:00,53.9,-11.0,-100.00,WNW,288,0.0,0.0,6,0.00,,,0.00,,2013-02-15 19:44:00,
2013-02-15 13:49:00,53.9,-11.0,-100.00,NE,51,0.0,0.0,6,0.00,,,0.00,,2013-02-15 19:49:00,
2013-02-15 13:54:00,55.1,-10.0,-100.00,NE,40,0.0,0.0,6,0.00,,,0.00,,2013-02-15 19:54:00,
2013-02-15 13:59:00,55.4,-10.0,-100.00,NE,40,0.0,0.0,6,0.00,,,0.00,,2013-02-15 19:59:00,
2013-02-15 14:04:00,53.7,-12.0,-100.00,NE,40,0.0,0.0,6,0.00,,,0.00,,2013-02-15 20:04:00,
2013-02-15 14:09:00,53.7,-12.0,-100.00,NW,305,0.0,0.0,6,0.00,,,0.00,,2013-02-15 20:09:00,
2013-02-15 14:14:00,55.0,-11.0,-100.00,WNW,299,0.0,0.0,6,0.00,,,0.00,,2013-02-15 20:14:00,
2013-02-15 14:19:00,53.3,-12.0,-100.00,West,277,0.0,0.0,6,0.00,,,0.00,,2013-02-15 20:19:00,
2013-02-15 14:24:00,53.1,-12.0,-100.00,SW,217,0.0,0.0,6,0.00,,,0.00,,2013-02-15 20:24:00,
2013-02-15 14:29:00,53.1,-12.0,-100.00,SW,220,0.0,0.0,6,0.00,,,0.00,,2013-02-15 20:29:00,
2013-02-15 14:34:00,53.3,-12.0,-100.00,NW,310,0.0,0.0,6,0.00,,,0.00,,2013-02-15 20:34:00,
2013-02-15 14:39:00,51.8,-10.0,-100.00,WNW,296,0.0,0.0,7,0.00,,,0.00,,2013-02-15 20:39:00,
2013-02-15 14:44:00,51.6,-10.0,-100.00,ESE,108,0.0,0.0,7,0.00,,,0.00,,2013-02-15 20:44:00,
2013-02-15 14:49:00,51.8,-10.0,-100.00,NNW,327,0.0,0.0,7,0.00,,,0.00,,2013-02-15 20:49:00,
2013-02-15 14:54:00,53.0,-9.0,-100.00,NW,310,0.0,0.0,7,0.00,,,0.00,,2013-02-15 20:54:00,
2013-02-15 14:59:00,53.1,-12.0,-100.00,NW,305,0.0,0.0,6,0.00,,,0.00,,2013-02-15 20:59:00,
2013-02-15 15:04:00,53.2,-12.0,-100.00,NW,310,0.0,0.0,6,0.00,,,0.00,,2013-02-15 21:04:00,
2013-02-15 15:14:00,53.1,-16.0,-100.00,NW,310,0.0,0.0,5,0.00,,,0.00,,2013-02-15 21:14:00,
2013-02-15 15:19:00,53.5,-12.0,-100.00,WNW,302,0.0,0.0,6,0.00,,,0.00,,2013-02-15 21:19:00,
2013-02-15 15:24:00,53.5,-15.0,-100.00,WNW,296,0.0,0.0,5,0.00,,,0.00,,2013-02-15 21:24:00,
2013-02-15 15:29:00,53.5,-15.0,-100.00,WNW,288,0.0,0.0,5,0.00,,,0.00,,2013-02-15 21:29:00,
2013-02-15 15:39:00,51.5,-13.0,-100.00,WNW,299,0.0,0.0,6,0.00,,,0.00,,2013-02-15 21:39:00,
2013-02-15 15:44:00,51.3,-13.0,-100.00,NW,310,0.0,0.0,6,0.00,,,0.00,,2013-02-15 21:44:00,
2013-02-15 15:49:00,49.8,-14.0,-100.00,NW,310,0.0,0.0,6,0.00,,,0.00,,2013-02-15 21:49:00,
2013-02-15 15:54:00,49.6,-11.0,-100.00,North,355,0.0,0.0,7,0.00,,,0.00,,2013-02-15 21:54:00,
2013-02-15 15:59:00,49.8,-11.0,-100.00,North,355,0.0,0.0,7,0.00,,,0.00,,2013-02-15 21:59:00,
2013-02-15 16:04:00,49.7,-11.0,-100.00,North,355,0.0,0.0,7,0.00,,,0.00,,2013-02-15 22:04:00,
2013-02-15 16:09:00,49.8,-11.0,-100.00,North,355,0.0,0.0,7,0.00,,,0.00,,2013-02-15 22:09:00,
2013-02-15 16:14:00,49.6,-11.0,-100.00,North,355,0.0,0.0,7,0.00,,,0.00,,2013-02-15 22:14:00,
2013-02-15 16:19:00,49.2,-12.0,-100.00,NW,310,0.0,0.0,7,0.00,,,0.00,,2013-02-15 22:19:00,
2013-02-15 16:24:00,49.2,-15.0,-100.00,WNW,288,0.0,0.0,6,0.00,,,0.00,,2013-02-15 22:24:00,
2013-02-15 16:29:00,49.0,-12.0,-100.00,SW,220,0.0,0.0,7,0.00,,,0.00,,2013-02-15 22:29:00,
2013-02-15 16:39:00,48.8,-9.0,-100.00,WNW,302,0.0,0.0,8,0.00,,,0.00,,2013-02-15 22:39:00,
2013-02-15 16:44:00,48.6,-10.0,-100.00,NW,310,0.0,0.0,8,0.00,,,0.00,,2013-02-15 22:44:00,
2013-02-15 16:49:00,48.4,-10.0,-100.00,NW,310,0.0,0.0,8,0.00,,,0.00,,2013-02-15 22:49:00,
2013-02-15 16:54:00,48.1,-10.0,-100.00,NW,310,0.0,0.0,8,0.00,,,0.00,,2013-02-15 22:54:00,
2013-02-15 16:59:00,48.0,-10.0,-100.00,NW,310,0.0,0.0,8,0.00,,,0.00,,2013-02-15 22:59:00,
2013-02-15 17:04:00,48.0,-10.0,-100.00,NW,310,0.0,0.0,8,0.00,,,0.00,,2013-02-15 23:04:00,
2013-02-15 17:09:00,46.7,26.0,-100.00,NW,310,0.0,0.0,45,0.00,,,0.00,,2013-02-15 23:09:00,
2013-02-15 17:14:00,46.6,30.0,-100.00,NW,310,0.0,0.0,54,0.00,,,0.00,,2013-02-15 23:14:00,
2013-02-15 17:19:00,46.5,31.0,-100.00,NW,310,0.0,0.0,55,0.00,,,0.00,,2013-02-15 23:19:00,
2013-02-15 17:24:00,46.5,31.0,-100.00,NW,310,0.0,0.0,55,0.00,,,0.00,,2013-02-15 23:24:00,
2013-02-15 17:29:00,46.4,31.0,-100.00,NW,310,0.0,0.0,55,0.00,,,0.00,,2013-02-15 23:29:00,
2013-02-15 17:34:00,46.3,31.0,-100.00,NW,310,0.0,0.0,56,0.00,,,0.00,,2013-02-15 23:34:00,
2013-02-15 17:39:00,46.2,31.0,-100.00,NW,310,0.0,0.0,56,0.00,,,0.00,,2013-02-15 23:39:00,
2013-02-15 17:44:00,46.1,30.0,-100.00,NW,310,0.0,0.0,55,0.00,,,0.00,,2013-02-15 23:44:00,
2013-02-15 17:49:00,46.0,31.0,-100.00,NW,310,0.0,0.0,56,0.00,,,0.00,,2013-02-15 23:49:00,
2013-02-15 17:54:00,44.8,30.0,-100.00,NW,310,0.0,0.0,56,0.00,,,0.00,,2013-02-15 23:54:00,
2013-02-15 17:59:00,44.8,29.0,-100.00,NW,310,0.0,0.0,55,0.00,,,0.00,,2013-02-15 23:59:00,
2013-02-15 18:04:00,44.6,29.0,-100.00,NW,310,0.0,0.0,56,0.00,,,0.00,,2013-02-16 00:04:00,
2013-02-15 18:09:00,44.6,29.0,-100.00,NW,310,0.0,0.0,55,0.00,,,0.00,,2013-02-16 00:09:00,
2013-02-15 18:14:00,44.5,29.0,-100.00,NW,310,0.0,0.0,55,0.00,,,0.00,,2013-02-16 00:14:00,
2013-02-15 18:19:00,44.5,29.0,-100.00,NW,310,0.0,0.0,55,0.00,,,0.00,,2013-02-16 00:19:00,
2013-02-15 18:24:00,44.4,29.0,-100.00,NW,310,0.0,0.0,55,0.00,,,0.00,,2013-02-16 00:24:00,
2013-02-15 18:29:00,44.4,29.0,-100.00,NW,310,0.0,0.0,55,0.00,,,0.00,,2013-02-16 00:29:00,
2013-02-15 18:34:00,44.3,29.0,-100.00,NW,310,0.0,0.0,55,0.00,,,0.00,,2013-02-16 00:34:00,
2013-02-15 18:39:00,44.3,29.0,-100.00,NW,310,0.0,0.0,55,0.00,,,0.00,,2013-02-16 00:39:00,
2013-02-15 18:44:00,44.1,28.0,-100.00,NW,310,0.0,0.0,55,0.00,,,0.00,,2013-02-16 00:44:00,
2013-02-15 18:49:00,44.1,28.0,-100.00,NW,310,0.0,0.0,55,0.00,,,0.00,,2013-02-16 00:49:00,
2013-02-15 18:54:00,44.0,29.0,-100.00,NW,310,0.0,0.0,56,0.00,,,0.00,,2013-02-16 00:54:00,
2013-02-15 18:59:00,44.0,29.0,-100.00,NW,310,0.0,0.0,56,0.00,,,0.00,,2013-02-16 00:59:00,
2013-02-15 19:04:00,42.9,28.0,-100.00,NW,310,0.0,0.0,56,0.00,,,0.00,,2013-02-16 01:04:00,
2013-02-15 19:09:00,42.8,28.0,-100.00,NW,310,0.0,0.0,56,0.00,,,0.00,,2013-02-16 01:09:00,
2013-02-15 19:14:00,42.7,28.0,-100.00,NW,310,0.0,0.0,57,0.00,,,0.00,,2013-02-16 01:14:00,
2013-02-15 19:19:00,42.6,28.0,-100.00,NW,310,0.0,0.0,57,0.00,,,0.00,,2013-02-16 01:19:00,
2013-02-15 19:24:00,42.6,28.0,-100.00,NW,310,0.0,0.0,57,0.00,,,0.00,,2013-02-16 01:24:00,
2013-02-15 19:29:00,42.6,28.0,-100.00,NW,310,0.0,0.0,57,0.00,,,0.00,,2013-02-16 01:29:00,
2013-02-15 19:39:00,42.5,28.0,-100.00,NW,310,0.0,0.0,57,0.00,,,0.00,,2013-02-16 01:39:00,
2013-02-15 19:44:00,42.6,28.0,-100.00,NW,310,0.0,0.0,57,0.00,,,0.00,,2013-02-16 01:44:00,
2013-02-15 19:49:00,42.6,28.0,-100.00,NW,310,0.0,0.0,57,0.00,,,0.00,,2013-02-16 01:49:00,
2013-02-15 19:54:00,42.6,28.0,-100.00,NW,310,0.0,0.0,58,0.00,,,0.00,,2013-02-16 01:54:00,
2013-02-15 19:59:00,42.6,28.0,-100.00,NW,310,0.0,0.0,57,0.00,,,0.00,,2013-02-16 01:59:00,
2013-02-15 20:04:00,42.6,28.0,-100.00,NW,310,0.0,0.0,57,0.00,,,0.00,,2013-02-16 02:04:00,
2013-02-15 20:09:00,42.6,28.0,-100.00,NW,310,0.0,0.0,57,0.00,,,0.00,,2013-02-16 02:09:00,
2013-02-15 20:14:00,42.7,28.0,-100.00,NW,310,0.0,0.0,57,0.00,,,0.00,,2013-02-16 02:14:00,
2013-02-15 20:19:00,42.7,28.0,-100.00,NW,310,0.0,0.0,57,0.00,,,0.00,,2013-02-16 02:19:00,
2013-02-15 20:24:00,42.8,28.0,-100.00,NW,310,0.0,0.0,57,0.00,,,0.00,,2013-02-16 02:24:00,
2013-02-15 20:29:00,42.8,28.0,-100.00,NW,310,0.0,0.0,57,0.00,,,0.00,,2013-02-16 02:29:00,
2013-02-15 20:34:00,42.8,28.0,-100.00,NW,310,0.0,0.0,57,0.00,,,0.00,,2013-02-16 02:34:00,
2013-02-15 20:39:00,42.8,28.0,-100.00,NW,310,0.0,0.0,57,0.00,,,0.00,,2013-02-16 02:39:00,
2013-02-15 20:44:00,42.8,28.0,-100.00,NW,310,0.0,0.0,57,0.00,,,0.00,,2013-02-16 02:44:00,
2013-02-15 20:49:00,42.7,28.0,-100.00,NW,310,0.0,0.0,57,0.00,,,0.00,,2013-02-16 02:49:00,
2013-02-15 20:54:00,42.6,28.0,-100.00,NW,310,0.0,0.0,57,0.00,,,0.00,,2013-02-16 02:54:00,
2013-02-15 20:59:00,42.5,28.0,-100.00,NW,310,0.0,0.0,57,0.00,,,0.00,,2013-02-16 02:59:00,
2013-02-15 21:04:00,42.4,28.0,-100.00,NW,310,0.0,0.0,57,0.00,,,0.00,,2013-02-16 03:04:00,
2013-02-15 21:09:00,42.2,28.0,-100.00,NW,310,0.0,0.0,57,0.00,,,0.00,,2013-02-16 03:09:00,
2013-02-15 21:14:00,42.1,27.0,-100.00,NW,310,0.0,0.0,57,0.00,,,0.00,,2013-02-16 03:14:00,
2013-02-15 21:19:00,42.0,27.0,-100.00,NW,310,0.0,0.0,57,0.00,,,0.00,,2013-02-16 03:19:00,
2013-02-15 21:24:00,40.9,26.0,-100.00,NW,310,0.0,0.0,57,0.00,,,0.00,,2013-02-16 03:24:00,
2013-02-15 21:29:00,40.8,26.0,-100.00,NW,310,0.0,0.0,57,0.00,,,0.00,,2013-02-16 03:29:00,
2013-02-15 21:34:00,40.8,26.0,-100.00,NW,310,0.0,0.0,57,0.00,,,0.00,,2013-02-16 03:34:00,
2013-02-15 21:39:00,40.6,26.0,-100.00,NW,310,0.0,0.0,57,0.00,,,0.00,,2013-02-16 03:39:00,
2013-02-15 21:44:00,40.3,26.0,-100.00,NW,310,0.0,0.0,58,0.00,,,0.00,,2013-02-16 03:44:00,
2013-02-15 21:49:00,40.1,26.0,-100.00,NW,310,0.0,0.0,58,0.00,,,0.00,,2013-02-16 03:49:00,
2013-02-15 21:54:00,39.9,26.0,-100.00,NW,310,0.0,0.0,58,0.00,,,0.00,,2013-02-16 03:54:00,
2013-02-15 21:59:00,39.8,26.0,-100.00,NW,310,0.0,0.0,58,0.00,,,0.00,,2013-02-16 03:59:00,
2013-02-15 22:04:00,39.8,26.0,-100.00,NW,310,0.0,0.0,58,0.00,,,0.00,,2013-02-16 04:04:00,
2013-02-15 22:09:00,39.5,26.0,-100.00,NW,310,0.0,0.0,59,0.00,,,0.00,,2013-02-16 04:09:00,
2013-02-15 22:14:00,39.3,26.0,-100.00,NW,310,0.0,0.0,59,0.00,,,0.00,,2013-02-16 04:14:00,
2013-02-15 22:19:00,39.1,25.0,-100.00,NW,310,0.0,0.0,59,0.00,,,0.00,,2013-02-16 04:19:00,
2013-02-15 22:24:00,39.0,26.0,-100.00,NW,310,0.0,0.0,60,0.00,,,0.00,,2013-02-16 04:24:00,
2013-02-15 22:29:00,37.8,25.0,-100.00,NW,310,0.0,0.0,60,0.00,,,0.00,,2013-02-16 04:29:00,
2013-02-15 22:34:00,37.7,25.0,-100.00,NW,310,0.0,0.0,61,0.00,,,0.00,,2013-02-16 04:34:00,
2013-02-15 22:39:00,37.6,25.0,-100.00,NW,310,0.0,0.0,61,0.00,,,0.00,,2013-02-16 04:39:00,
2013-02-15 22:44:00,37.4,25.0,-100.00,NW,310,0.0,0.0,62,0.00,,,0.00,,2013-02-16 04:44:00,
2013-02-15 22:49:00,37.3,25.0,-100.00,NW,310,0.0,0.0,63,0.00,,,0.00,,2013-02-16 04:49:00,
2013-02-15 22:54:00,37.0,25.0,-100.00,NW,310,0.0,0.0,63,0.00,,,0.00,,2013-02-16 04:54:00,
2013-02-15 22:59:00,35.7,24.0,-100.00,NW,310,0.0,0.0,64,0.00,,,0.00,,2013-02-16 04:59:00,
2013-02-15 23:04:00,35.5,24.0,-100.00,NW,310,0.0,0.0,65,0.00,,,0.00,,2013-02-16 05:04:00,
2013-02-15 23:09:00,35.3,25.0,-100.00,NW,310,0.0,0.0,66,0.00,,,0.00,,2013-02-16 05:09:00,
2013-02-15 23:14:00,35.0,25.0,-100.00,NW,310,0.0,0.0,67,0.00,,,0.00,,2013-02-16 05:14:00,
2013-02-15 23:19:00,33.8,24.0,-100.00,NW,310,0.0,0.0,67,0.00,,,0.00,,2013-02-16 05:19:00,
2013-02-15 23:24:00,33.6,24.0,-100.00,NW,310,0.0,0.0,68,0.00,,,0.00,,2013-02-16 05:24:00,
2013-02-15 23:29:00,33.6,24.0,-100.00,NW,310,0.0,0.0,69,0.00,,,0.00,,2013-02-16 05:29:00,
2013-02-15 23:34:00,33.5,24.0,-100.00,NW,310,0.0,0.0,69,0.00,,,0.00,,2013-02-16 05:34:00,
2013-02-15 23:39:00,33.1,24.0,-100.00,NW,310,0.0,0.0,70,0.00,,,0.00,,2013-02-16 05:39:00,
2013-02-15 23:44:00,33.0,24.0,-100.00,NW,310,0.0,0.0,70,0.00,,,0.00,,2013-02-16 05:44:00,
2013-02-15 23:49:00,33.0,24.0,-100.00,NW,310,0.0,0.0,71,0.00,,,0.00,,2013-02-16 05:49:00,
2013-02-15 23:54:00,33.0,24.0,-100.00,NW,310,0.0,0.0,71,0.00,,,0.00,,2013-02-16 05:54:00,
2013-02-15 23:59:00,33.0,24.0,-100.00,NW,310,0.0,0.0,71,0.00,,,0.00,,2013-02-16 05:59:00,